< < Back
Terminal Aerodrome Forecast


Current Version              Previous Versions:   1  2  3  4  5  6  7  8  9  

Terminal Aerodrome Forecast

364
FTUS42 KMLB 010500
TAFMCO
TAF
KMCO 010524Z 0106/0206 00000KT P6SM SCT015 SCT025
     FM010900 00000KT 5SM BR SCT006
     FM011400 04006KT P6SM VCSH FEW030 BKN080
     FM012300 04006KT P6SM FEW025 SCT100 SCT250=

Latest METAR

586
SAUS70 KWBC 010800 RRR
MTRMCO
METAR KMCO 010753Z 00000KT 10SM BKN070 23/23 A2986 RMK AO2 SLP111
T02330233


USA.gov is the U.S. government's official web portal to all federal, state and local government web resources and services.